createdAt,value
2019-04-29T00:03:19.403Z,5.54
2019-04-29T00:08:08.166Z,5.45
2019-04-29T00:13:28.430Z,6.17
2019-04-29T00:18:15.805Z,6.40
2019-04-29T00:23:23.264Z,6.71
2019-04-29T00:28:30.603Z,6.25
2019-04-29T00:33:38.803Z,6.18
2019-04-29T00:39:00.415Z,6.03
2019-04-29T00:43:47.815Z,6.88
2019-04-29T00:48:55.211Z,6.35
2019-04-29T00:54:15.327Z,5.55
2019-04-29T00:59:16.574Z,5.71
2019-04-29T01:04:03.919Z,6.49
2019-04-29T01:09:24.287Z,6.47
2019-04-29T01:14:12.569Z,7.05
2019-04-29T01:19:32.880Z,7.11
2019-04-29T01:24:20.217Z,7.26
2019-04-29T01:29:27.627Z,6.37
2019-04-29T01:34:34.881Z,7.32
2019-04-29T01:45:00.770Z,8.23
2019-04-29T01:49:48.941Z,7.71
2019-04-29T01:54:57.268Z,8.07
2019-04-29T02:00:17.443Z,8.46
2019-04-29T02:05:04.793Z,8.09
2019-04-29T02:10:12.127Z,10.35
2019-04-29T02:15:20.340Z,10.99
2019-04-29T02:20:27.863Z,9.92
2019-04-29T02:25:47.964Z,11.01
2019-04-29T02:30:36.262Z,11.76
2019-04-29T02:35:44.411Z,10.74
2019-04-29T02:41:05.698Z,11.51
2019-04-29T02:46:05.665Z,10.25
2019-04-29T02:50:54.137Z,11.44
2019-04-29T02:56:01.500Z,10.31
2019-04-29T03:01:21.651Z,11.70
2019-04-29T03:06:22.862Z,12.29
2019-04-29T03:11:23.216Z,10.63
2019-04-29T03:16:10.356Z,10.78
2019-04-29T03:21:31.733Z,10.96
2019-04-29T03:26:33.130Z,11.39
2019-04-29T03:31:20.428Z,11.08
2019-04-29T03:36:27.655Z,10.86
2019-04-29T03:41:36.120Z,11.09
2019-04-29T03:46:43.235Z,10.34
2019-04-29T03:57:05.207Z,12.62
2019-04-29T04:01:53.613Z,12.55
2019-04-29T04:12:04.828Z,14.73
2019-04-29T04:17:25.153Z,13.93
2019-04-29T04:22:25.612Z,15.49
2019-04-29T04:27:25.873Z,15.31
2019-04-29T04:42:29.789Z,15.22
2019-04-29T04:47:47.504Z,18.61
2019-04-29T04:52:48.533Z,16.56
2019-04-29T04:57:36.702Z,16.50
2019-04-29T05:02:57.884Z,18.99
2019-04-29T05:07:58.095Z,19.09
2019-04-29T05:12:45.592Z,16.55
2019-04-29T05:18:05.732Z,17.66
2019-04-29T05:23:06.100Z,21.03
2019-04-29T05:28:06.221Z,18.47
2019-04-29T05:32:54.587Z,18.04
2019-04-29T05:38:14.678Z,19.90
2019-04-29T05:43:15.887Z,17.97
2019-04-29T05:48:16.119Z,17.90
2019-04-29T05:53:03.313Z,15.61
2019-04-29T05:58:11.648Z,16.90
2019-04-29T06:03:33.457Z,15.95
2019-04-29T06:08:19.135Z,16.14
2019-04-29T06:13:40.486Z,16.33
2019-04-29T06:18:27.832Z,17.12
2019-04-29T06:23:48.173Z,18.10
2019-04-29T06:33:49.410Z,20.18
2019-04-29T06:38:37.737Z,19.59
2019-04-29T06:43:45.222Z,22.40
2019-04-29T06:49:10.368Z,22.44
2019-04-29T06:53:54.019Z,21.81
2019-04-29T07:09:18.291Z,24.49
2019-04-29T07:14:06.658Z,22.50
2019-04-29T07:19:13.888Z,20.11
2019-04-29T07:24:35.116Z,19.55
2019-04-29T07:29:29.386Z,17.75
2019-04-29T07:34:44.798Z,17.42
2019-04-29T07:39:44.834Z,18.48
2019-04-29T07:44:43.779Z,19.38
2019-04-29T07:49:53.845Z,18.21
2019-04-29T07:54:56.298Z,14.11
2019-04-29T07:59:42.743Z,10.84
2019-04-29T08:04:50.069Z,9.92
2019-04-29T08:15:07.793Z,10.42
2019-04-29T08:20:10.473Z,9.87
2019-04-29T08:25:30.741Z,9.93
2019-04-29T08:30:18.873Z,11.32
2019-04-29T08:35:27.141Z,10.79
2019-04-29T08:40:36.275Z,11.17
2019-04-29T08:45:57.860Z,11.66
2019-04-29T08:50:59.164Z,9.70
2019-04-29T08:55:46.442Z,9.97
2019-04-29T09:01:08.719Z,9.54
2019-04-29T09:06:10.132Z,8.38
2019-04-29T09:10:57.252Z,7.40
2019-04-29T09:16:05.640Z,7.79
2019-04-29T09:21:12.859Z,8.37
2019-04-29T09:31:38.123Z,9.35
2019-04-29T09:36:38.442Z,9.33
2019-04-29T09:41:30.425Z,8.96
2019-04-29T09:46:35.788Z,7.91
2019-04-29T09:51:41.724Z,7.78
2019-04-29T09:56:49.346Z,6.83
2019-04-29T10:01:56.662Z,6.05
2019-04-29T10:07:04.007Z,5.82
2019-04-29T10:12:13.270Z,5.67
2019-04-29T10:17:20.617Z,5.17
2019-04-29T10:22:41.874Z,5.25
2019-04-29T10:27:42.426Z,4.67
2019-04-29T10:32:29.580Z,4.04
2019-04-29T10:37:38.545Z,3.82
2019-04-29T10:42:59.834Z,4.14
2019-04-29T10:48:00.013Z,4.63
2019-04-29T10:53:01.137Z,3.79
2019-04-29T10:58:01.393Z,3.40
2019-04-29T11:02:51.043Z,3.86
2019-04-29T11:07:58.063Z,3.69
2019-04-29T11:18:08.165Z,4.37
2019-04-29T11:23:29.364Z,3.58
2019-04-29T11:28:17.743Z,3.33
2019-04-29T11:33:24.082Z,3.31
2019-04-29T11:38:45.435Z,3.32
2019-04-29T11:43:32.637Z,3.40
2019-04-29T11:48:54.002Z,3.66
2019-04-29T11:53:54.293Z,3.64
2019-04-29T11:58:55.670Z,3.70
2019-04-29T12:03:42.732Z,4.07
2019-04-29T12:08:53.175Z,4.00
2019-04-29T12:15:03.756Z,4.46
2019-04-29T12:25:23.032Z,4.31
2019-04-29T12:30:40.198Z,4.36
2019-04-29T12:35:51.159Z,4.64
2019-04-29T12:45:35.164Z,4.08
2019-04-29T12:50:57.553Z,4.99
2019-04-29T12:55:56.755Z,5.07
2019-04-29T13:01:01.121Z,4.99
2019-04-29T13:05:58.816Z,4.80
2019-04-29T13:10:45.637Z,3.43
2019-04-29T13:15:54.381Z,3.45
2019-04-29T13:21:09.908Z,3.27
2019-04-29T13:31:09.899Z,3.58
2019-04-29T13:36:30.126Z,3.20
2019-04-29T13:41:23.393Z,3.25
2019-04-29T13:46:25.331Z,2.67
2019-04-29T13:51:45.463Z,2.76
2019-04-29T13:56:55.975Z,2.91
2019-04-29T14:01:39.800Z,2.47
2019-04-29T14:06:55.826Z,2.31
2019-04-29T14:17:08.295Z,2.54
2019-04-29T14:22:01.009Z,2.53
2019-04-29T14:27:08.080Z,2.69
2019-04-29T14:32:18.336Z,3.38
2019-04-29T14:42:25.641Z,3.63
2019-04-29T14:47:33.221Z,3.42
2019-04-29T14:52:53.528Z,3.70
2019-04-29T14:57:40.632Z,3.44
2019-04-29T15:02:49.153Z,3.69
2019-04-29T15:08:10.394Z,3.52
2019-04-29T15:13:06.681Z,3.81
2019-04-29T15:18:15.568Z,3.75
2019-04-29T15:23:12.305Z,3.70
2019-04-29T15:28:20.620Z,3.12
2019-04-29T15:33:30.503Z,3.02
2019-04-29T15:38:35.432Z,3.42
2019-04-29T15:43:47.907Z,3.03
2019-04-29T15:54:14.324Z,2.66
2019-04-29T15:59:12.246Z,2.80
2019-04-29T16:03:59.403Z,2.98
2019-04-29T16:09:23.601Z,3.32
2019-04-29T16:14:20.973Z,3.67
2019-04-29T16:19:10.542Z,3.23
2019-04-29T16:24:26.231Z,3.30
2019-04-29T16:29:26.462Z,3.23
2019-04-29T16:34:45.163Z,2.77
2019-04-29T16:39:38.991Z,3.05
2019-04-29T16:44:35.665Z,3.09
2019-04-29T16:49:34.698Z,3.32
2019-04-29T16:54:42.046Z,3.66
2019-04-29T16:59:50.225Z,3.58
2019-04-29T17:05:00.651Z,3.34
2019-04-29T17:10:10.226Z,3.30
2019-04-29T17:15:28.444Z,3.50
2019-04-29T17:20:29.570Z,3.38
2019-04-29T17:25:30.786Z,3.82
2019-04-29T17:30:19.118Z,3.64
2019-04-29T17:40:30.060Z,3.20
2019-04-29T17:45:37.222Z,3.87
2019-04-29T17:56:03.160Z,3.33
2019-04-29T18:00:57.855Z,4.41
2019-04-29T18:06:10.787Z,4.71
2019-04-29T18:11:11.895Z,4.42
2019-04-29T18:16:03.970Z,4.34
2019-04-29T18:21:06.870Z,4.23
2019-04-29T18:26:14.866Z,4.79
2019-04-29T18:31:35.666Z,4.70
2019-04-29T18:36:36.130Z,4.30
2019-04-29T18:41:36.527Z,4.45
2019-04-29T18:46:25.859Z,4.72
2019-04-29T18:51:45.578Z,4.18
2019-04-29T18:56:35.881Z,4.50
2019-04-29T19:01:54.808Z,4.82
2019-04-29T19:06:40.707Z,4.78
2019-04-29T19:12:00.903Z,5.23
2019-04-29T19:17:01.475Z,4.94
2019-04-29T19:21:48.481Z,5.44
2019-04-29T19:27:10.384Z,5.36
2019-04-29T19:36:59.361Z,5.67
2019-04-29T19:47:19.658Z,6.25
2019-04-29T19:52:29.985Z,6.67
2019-04-29T19:57:08.296Z,6.19
2019-04-29T20:02:18.731Z,7.07
2019-04-29T20:12:28.214Z,7.11
2019-04-29T20:17:49.683Z,6.55
2019-04-29T20:22:51.256Z,7.45
2019-04-29T20:27:37.931Z,8.70
2019-04-29T20:32:46.215Z,8.47
2019-04-29T20:37:56.660Z,7.57
2019-04-29T20:43:00.755Z,7.78
2019-04-29T20:53:22.171Z,7.94
2019-04-29T20:58:09.769Z,8.07
2019-04-29T21:03:27.303Z,8.45
2019-04-29T21:08:39.280Z,8.15
2019-04-29T21:13:26.424Z,8.53
2019-04-29T21:18:52.611Z,9.17
2019-04-29T21:23:35.798Z,9.78
2019-04-29T21:28:55.623Z,9.95
2019-04-29T21:33:58.780Z,9.29
2019-04-29T21:44:03.960Z,11.37
2019-04-29T21:48:52.411Z,10.84
2019-04-29T21:53:59.580Z,11.51
2019-04-29T21:59:11.948Z,12.42
2019-04-29T22:04:32.717Z,13.59
2019-04-29T22:09:18.154Z,14.72
2019-04-29T22:14:26.682Z,16.10
2019-04-29T22:19:46.692Z,17.39
2019-04-29T22:24:46.742Z,17.37
2019-04-29T22:29:48.191Z,19.42
2019-04-29T22:34:49.539Z,17.68
2019-04-29T22:39:38.878Z,19.24
2019-04-29T22:44:36.165Z,18.92
2019-04-29T22:45:44.972Z,22.15
2019-04-29T23:01:13.000Z,19.98
2019-04-29T23:06:06.909Z,20.95
2019-04-29T23:16:25.374Z,20.71
2019-04-29T23:21:16.277Z,19.59
2019-04-29T23:26:21.043Z,21.76
2019-04-29T23:31:29.197Z,21.22
2019-04-29T23:36:50.133Z,19.41
2019-04-29T23:46:53.845Z,22.14
2019-04-29T23:51:41.194Z,21.23
2019-04-29T23:56:48.363Z,20.20
